createdAt,value
2023-03-06T00:02:57.774Z,2.80
2023-03-06T00:08:08.920Z,3.17
2023-03-06T00:13:29.114Z,2.67
2023-03-06T00:18:48.941Z,3.43
2023-03-06T00:24:00.666Z,3.40
2023-03-06T00:29:09.602Z,3.07
2023-03-06T00:34:16.706Z,3.30
2023-03-06T00:39:24.315Z,3.77
2023-03-06T00:44:32.080Z,3.00
2023-03-06T00:49:40.209Z,3.30
2023-03-06T00:54:45.450Z,3.50
2023-03-06T00:59:56.037Z,3.77
2023-03-06T01:05:04.175Z,3.53
2023-03-06T01:10:19.450Z,3.27
2023-03-06T01:15:32.223Z,3.57
2023-03-06T01:20:44.454Z,3.47
2023-03-06T01:25:55.058Z,3.43
2023-03-06T01:31:07.436Z,3.70
2023-03-06T01:36:20.003Z,3.97
2023-03-06T01:41:31.585Z,3.87
2023-03-06T01:46:50.269Z,4.20
2023-03-06T01:52:13.593Z,3.97
2023-03-06T01:57:29.126Z,4.40
2023-03-06T02:02:53.074Z,4.10
2023-03-06T02:08:04.599Z,3.87
2023-03-06T02:13:10.295Z,4.03
2023-03-06T02:18:22.462Z,4.30
2023-03-06T02:23:37.404Z,4.90
2023-03-06T02:29:04.501Z,4.43
2023-03-06T02:34:55.595Z,4.50
2023-03-06T02:40:15.584Z,4.17
2023-03-06T02:45:35.763Z,4.37
2023-03-06T02:50:49.064Z,4.40
2023-03-06T02:56:18.303Z,5.00
2023-03-06T03:01:37.147Z,5.10
2023-03-06T03:06:44.839Z,5.30
2023-03-06T03:11:51.452Z,4.83
2023-03-06T03:17:11.203Z,5.13
2023-03-06T03:22:26.246Z,5.33
2023-03-06T03:27:36.548Z,5.97
2023-03-06T03:32:47.595Z,5.40
2023-03-06T03:38:05.055Z,5.67
2023-03-06T03:43:12.547Z,5.30
2023-03-06T03:48:25.454Z,5.53
2023-03-06T03:53:45.230Z,5.63
2023-03-06T03:59:01.808Z,5.27
2023-03-06T04:04:11.265Z,5.83
2023-03-06T04:09:17.920Z,5.40
2023-03-06T04:14:28.805Z,6.07
2023-03-06T04:19:42.368Z,6.20
2023-03-06T04:24:53.811Z,6.47
2023-03-06T04:30:06.726Z,6.10
2023-03-06T04:35:17.610Z,5.93
2023-03-06T04:59:11.406Z,5.57
2023-03-06T05:36:43.532Z,6.17
2023-03-06T05:43:04.379Z,5.63
2023-03-06T05:48:59.388Z,5.80
2023-03-06T06:07:56.973Z,6.30
2023-03-06T06:19:41.677Z,6.53
2023-03-06T06:26:05.294Z,6.97
2023-03-06T10:51:30.112Z,9.10
2023-03-06T10:56:58.026Z,9.70
2023-03-06T11:02:39.971Z,10.40
2023-03-06T11:08:12.539Z,9.70
2023-03-06T11:13:48.099Z,9.50
2023-03-06T11:19:38.674Z,10.50
2023-03-06T11:25:11.616Z,10.37
2023-03-06T11:30:52.929Z,10.93
2023-03-06T11:36:12.227Z,10.50
2023-03-06T11:41:39.099Z,11.53
2023-03-06T11:53:15.969Z,13.20
2023-03-06T11:58:49.597Z,13.43
2023-03-06T12:04:10.148Z,12.70
2023-03-06T12:09:34.895Z,12.07
2023-03-06T12:14:53.529Z,11.07
2023-03-06T12:20:23.750Z,12.47
2023-03-06T12:25:34.999Z,10.77
2023-03-06T12:31:02.306Z,11.50
2023-03-06T12:36:18.720Z,11.30
2023-03-06T12:41:35.992Z,11.83
2023-03-06T12:46:44.298Z,11.40
2023-03-06T12:51:47.830Z,12.13
2023-03-06T12:56:53.771Z,10.73
2023-03-06T13:02:15.632Z,11.20
2023-03-06T13:07:35.181Z,11.00
2023-03-06T13:12:51.214Z,10.50
2023-03-06T13:17:53.963Z,10.53
2023-03-06T13:22:56.911Z,11.30
2023-03-06T13:28:05.712Z,10.80
2023-03-06T13:33:44.042Z,13.50
2023-03-06T13:38:57.541Z,13.53
2023-03-06T13:44:03.505Z,11.90
2023-03-06T13:49:16.838Z,13.67
2023-03-06T13:54:28.366Z,12.33
2023-03-06T14:00:03.111Z,12.27
2023-03-06T14:05:13.416Z,12.43
2023-03-06T14:10:22.032Z,12.50
2023-03-06T14:15:28.931Z,11.53
2023-03-06T14:20:36.510Z,10.40
2023-03-06T14:25:40.385Z,10.67
2023-03-06T14:30:51.819Z,11.00
2023-03-06T14:35:57.481Z,10.93
2023-03-06T14:41:00.438Z,9.97
2023-03-06T14:46:07.838Z,10.73
2023-03-06T14:51:18.285Z,10.37
2023-03-06T14:56:23.032Z,9.90
2023-03-06T15:01:38.973Z,9.93
2023-03-06T15:06:43.777Z,9.60
2023-03-06T15:12:00.891Z,8.90
2023-03-06T15:17:25.053Z,8.67
2023-03-06T15:22:37.375Z,8.07
2023-03-06T15:27:40.107Z,8.10
2023-03-06T15:32:44.564Z,8.37
2023-03-06T15:37:47.285Z,7.40
2023-03-06T15:42:50.636Z,7.00
2023-03-06T15:47:55.933Z,7.30
2023-03-06T15:53:01.460Z,6.70
2023-03-06T15:58:05.009Z,7.00
2023-03-06T16:03:11.998Z,7.13
2023-03-06T16:08:16.172Z,6.80
2023-03-06T16:13:25.338Z,8.50
2023-03-06T16:18:31.469Z,9.40
2023-03-06T16:23:38.722Z,9.50
2023-03-06T16:28:41.824Z,10.10
2023-03-06T16:33:45.863Z,10.83
2023-03-06T16:38:49.026Z,11.00
2023-03-06T16:43:51.887Z,11.00
2023-03-06T16:48:56.087Z,11.17
2023-03-06T16:53:58.886Z,9.50
2023-03-06T16:59:01.625Z,8.37
2023-03-06T17:04:05.781Z,9.67
2023-03-06T17:09:08.527Z,8.77
2023-03-06T17:14:11.204Z,8.40
2023-03-06T17:19:16.067Z,7.60
2023-03-06T17:24:19.265Z,9.30
2023-03-06T17:29:22.007Z,11.07
2023-03-06T17:34:29.820Z,13.00
2023-03-06T17:39:33.412Z,11.93
2023-03-06T17:44:36.862Z,11.37
2023-03-06T17:49:48.431Z,14.73
2023-03-06T17:54:51.227Z,10.07
2023-03-06T18:00:09.552Z,10.30
2023-03-06T18:05:18.082Z,11.13
2023-03-06T18:10:24.230Z,12.57
2023-03-06T18:15:27.041Z,13.10
2023-03-06T18:20:31.121Z,13.50
2023-03-06T18:25:33.975Z,13.80
2023-03-06T18:30:46.540Z,11.90
2023-03-06T18:35:50.761Z,12.20
2023-03-06T18:41:10.042Z,12.07
2023-03-06T18:46:13.436Z,8.60
2023-03-06T18:51:20.073Z,7.83
2023-03-06T19:02:34.102Z,10.83
2023-03-06T19:07:40.300Z,9.10
2023-03-06T19:12:58.698Z,9.87
2023-03-06T19:18:11.412Z,9.03
2023-03-06T19:23:16.686Z,10.10
2023-03-06T19:28:19.500Z,9.97
2023-03-06T19:33:31.649Z,9.63
2023-03-06T19:45:39.456Z,9.87
2023-03-06T19:51:32.687Z,9.00
2023-03-06T19:57:30.879Z,9.27
2023-03-06T20:09:50.237Z,9.23
2023-03-06T20:34:48.928Z,10.27
2023-03-06T20:58:46.963Z,10.07
2023-03-06T21:03:50.676Z,11.03
2023-03-06T21:08:54.044Z,9.97
2023-03-06T21:14:02.275Z,9.80
2023-03-06T21:19:05.489Z,10.00
2023-03-06T21:24:09.391Z,10.67
2023-03-06T21:29:14.263Z,11.97
2023-03-06T21:34:20.083Z,11.03
2023-03-06T21:39:23.944Z,11.73
2023-03-06T21:44:31.641Z,10.87
2023-03-06T21:49:35.409Z,11.07
2023-03-06T21:54:38.236Z,11.40
2023-03-06T21:59:42.989Z,12.47
2023-03-06T22:04:45.706Z,13.23
2023-03-06T22:09:48.820Z,12.50
2023-03-06T22:14:52.890Z,13.00
2023-03-06T22:19:55.791Z,13.90
2023-03-06T22:24:58.604Z,12.67
2023-03-06T22:30:02.821Z,12.70
2023-03-06T22:35:06.584Z,13.07
2023-03-06T22:40:10.755Z,13.70
2023-03-06T22:45:15.071Z,13.53
2023-03-06T22:50:18.690Z,13.23
2023-03-06T22:55:21.471Z,12.20
2023-03-06T23:00:26.323Z,11.80
2023-03-06T23:05:29.752Z,12.47
2023-03-06T23:10:32.592Z,12.73
2023-03-06T23:15:37.983Z,12.33
2023-03-06T23:20:43.356Z,12.30
2023-03-06T23:25:46.227Z,12.10
2023-03-06T23:30:50.398Z,12.27
2023-03-06T23:35:53.278Z,12.10
2023-03-06T23:40:56.017Z,11.23
2023-03-06T23:46:00.514Z,12.37
2023-03-06T23:51:06.406Z,12.90
2023-03-06T23:56:10.085Z,12.07
